sensor_id;sensor_type;location;lat;lon;timestamp;temperature;humidity
3705;DHT22;1868;48.918;9.438;2023-04-01T00:01:47;9.50;97.40
3705;DHT22;1868;48.918;9.438;2023-04-01T00:04:17;9.50;97.40
3705;DHT22;1868;48.918;9.438;2023-04-01T00:06:49;9.60;97.40
3705;DHT22;1868;48.918;9.438;2023-04-01T00:09:20;9.60;97.40
3705;DHT22;1868;48.918;9.438;2023-04-01T00:11:55;9.50;97.40
3705;DHT22;1868;48.918;9.438;2023-04-01T00:14:25;9.50;97.40
3705;DHT22;1868;48.918;9.438;2023-04-01T00:16:54;9.50;97.40
3705;DHT22;1868;48.918;9.438;2023-04-01T00:19:22;9.50;97.40
3705;DHT22;1868;48.918;9.438;2023-04-01T00:21:54;9.50;97.40
3705;DHT22;1868;48.918;9.438;2023-04-01T00:24:28;9.60;97.40
3705;DHT22;1868;48.918;9.438;2023-04-01T00:26:58;9.60;97.40
3705;DHT22;1868;48.918;9.438;2023-04-01T00:29:27;9.60;97.40
3705;DHT22;1868;48.918;9.438;2023-04-01T00:31:58;9.60;97.40
3705;DHT22;1868;48.918;9.438;2023-04-01T00:34:27;9.60;97.40
3705;DHT22;1868;48.918;9.438;2023-04-01T00:36:57;9.60;97.40
3705;DHT22;1868;48.918;9.438;2023-04-01T00:39:28;9.60;97.40
3705;DHT22;1868;48.918;9.438;2023-04-01T00:42:00;9.70;97.40
3705;DHT22;1868;48.918;9.438;2023-04-01T00:44:31;9.70;97.40
3705;DHT22;1868;48.918;9.438;2023-04-01T00:47:01;9.70;97.40
3705;DHT22;1868;48.918;9.438;2023-04-01T00:49:32;9.70;97.40
3705;DHT22;1868;48.918;9.438;2023-04-01T00:52:08;9.70;97.40
3705;DHT22;1868;48.918;9.438;2023-04-01T00:54:41;9.60;97.40
3705;DHT22;1868;48.918;9.438;2023-04-01T00:57:14;9.60;97.40
3705;DHT22;1868;48.918;9.438;2023-04-01T00:59:46;9.50;97.40
3705;DHT22;1868;48.918;9.438;2023-04-01T01:02:16;9.50;97.40
3705;DHT22;1868;48.918;9.438;2023-04-01T01:04:48;9.40;97.40
3705;DHT22;1868;48.918;9.438;2023-04-01T01:07:27;9.50;97.40
3705;DHT22;1868;48.918;9.438;2023-04-01T01:10:04;9.50;97.40
3705;DHT22;1868;48.918;9.438;2023-04-01T01:12:40;9.50;97.40
3705;DHT22;1868;48.918;9.438;2023-04-01T01:15:20;9.50;97.40
3705;DHT22;1868;48.918;9.438;2023-04-01T01:17:57;9.50;97.40
3705;DHT22;1868;48.918;9.438;2023-04-01T01:24:31;9.60;97.40
3705;DHT22;1868;48.918;9.438;2023-04-01T01:27:14;9.60;97.40
3705;DHT22;1868;48.918;9.438;2023-04-01T01:30:11;9.60;97.40
3705;DHT22;1868;48.918;9.438;2023-04-01T01:32:59;9.60;97.40
3705;DHT22;1868;48.918;9.438;2023-04-01T01:35:46;9.60;97.40
3705;DHT22;1868;48.918;9.438;2023-04-01T01:38:21;9.60;97.40
3705;DHT22;1868;48.918;9.438;2023-04-01T01:40:59;9.60;97.40
3705;DHT22;1868;48.918;9.438;2023-04-01T01:43:33;9.70;97.40
3705;DHT22;1868;48.918;9.438;2023-04-01T01:46:06;9.70;97.40
3705;DHT22;1868;48.918;9.438;2023-04-01T01:48:40;9.60;97.40
3705;DHT22;1868;48.918;9.438;2023-04-01T01:51:12;9.70;97.40
3705;DHT22;1868;48.918;9.438;2023-04-01T01:53:41;9.70;97.40
3705;DHT22;1868;48.918;9.438;2023-04-01T01:56:13;9.70;97.40
3705;DHT22;1868;48.918;9.438;2023-04-01T01:58:44;9.70;97.40
3705;DHT22;1868;48.918;9.438;2023-04-01T02:01:19;9.70;97.40
3705;DHT22;1868;48.918;9.438;2023-04-01T02:03:52;9.70;97.40
3705;DHT22;1868;48.918;9.438;2023-04-01T02:06:26;9.80;97.40
3705;DHT22;1868;48.918;9.438;2023-04-01T02:08:59;9.70;97.40
3705;DHT22;1868;48.918;9.438;2023-04-01T02:11:32;9.70;97.40
3705;DHT22;1868;48.918;9.438;2023-04-01T02:14:06;9.70;97.40
3705;DHT22;1868;48.918;9.438;2023-04-01T02:16:40;9.70;97.40
3705;DHT22;1868;48.918;9.438;2023-04-01T02:19:13;9.70;97.40
3705;DHT22;1868;48.918;9.438;2023-04-01T02:21:55;9.70;97.40
3705;DHT22;1868;48.918;9.438;2023-04-01T02:24:27;9.50;97.40
3705;DHT22;1868;48.918;9.438;2023-04-01T02:26:59;9.50;97.40
3705;DHT22;1868;48.918;9.438;2023-04-01T02:29:30;9.50;97.40
3705;DHT22;1868;48.918;9.438;2023-04-01T02:31:59;9.40;97.40
3705;DHT22;1868;48.918;9.438;2023-04-01T02:34:29;9.40;97.40
3705;DHT22;1868;48.918;9.438;2023-04-01T02:37:00;9.30;97.40
3705;DHT22;1868;48.918;9.438;2023-04-01T02:39:29;9.30;97.40
3705;DHT22;1868;48.918;9.438;2023-04-01T02:41:59;9.30;97.40
3705;DHT22;1868;48.918;9.438;2023-04-01T02:44:28;9.20;97.40
3705;DHT22;1868;48.918;9.438;2023-04-01T02:46:58;9.20;97.40
3705;DHT22;1868;48.918;9.438;2023-04-01T02:49:28;9.20;97.40
3705;DHT22;1868;48.918;9.438;2023-04-01T02:52:00;9.20;97.40
3705;DHT22;1868;48.918;9.438;2023-04-01T02:54:28;9.10;97.40
3705;DHT22;1868;48.918;9.438;2023-04-01T02:56:59;9.10;97.40
3705;DHT22;1868;48.918;9.438;2023-04-01T02:59:28;9.10;97.40
3705;DHT22;1868;48.918;9.438;2023-04-01T03:01:57;9.10;97.40
3705;DHT22;1868;48.918;9.438;2023-04-01T03:04:26;9.20;97.40
3705;DHT22;1868;48.918;9.438;2023-04-01T03:06:54;9.10;97.40
3705;DHT22;1868;48.918;9.438;2023-04-01T03:09:25;9.20;97.40
3705;DHT22;1868;48.918;9.438;2023-04-01T03:11:56;9.20;97.40
3705;DHT22;1868;48.918;9.438;2023-04-01T03:14:26;9.20;97.40
3705;DHT22;1868;48.918;9.438;2023-04-01T03:16:55;9.30;97.40
3705;DHT22;1868;48.918;9.438;2023-04-01T03:19:24;9.30;97.40
3705;DHT22;1868;48.918;9.438;2023-04-01T03:21:54;9.30;97.40
3705;DHT22;1868;48.918;9.438;2023-04-01T03:24:24;9.30;97.40
3705;DHT22;1868;48.918;9.438;2023-04-01T03:26:53;9.30;97.40
3705;DHT22;1868;48.918;9.438;2023-04-01T03:29:22;9.20;97.40
3705;DHT22;1868;48.918;9.438;2023-04-01T03:31:51;9.20;97.40
3705;DHT22;1868;48.918;9.438;2023-04-01T03:34:20;9.20;97.40
3705;DHT22;1868;48.918;9.438;2023-04-01T03:36:51;9.30;97.40
3705;DHT22;1868;48.918;9.438;2023-04-01T03:39:20;9.20;97.40
3705;DHT22;1868;48.918;9.438;2023-04-01T03:41:51;9.20;97.40
3705;DHT22;1868;48.918;9.438;2023-04-01T03:44:21;9.20;97.40
3705;DHT22;1868;48.918;9.438;2023-04-01T03:46:54;9.20;97.40
3705;DHT22;1868;48.918;9.438;2023-04-01T03:49:23;9.10;97.40
3705;DHT22;1868;48.918;9.438;2023-04-01T03:51:52;9.00;97.40
3705;DHT22;1868;48.918;9.438;2023-04-01T03:54:22;9.00;97.40
3705;DHT22;1868;48.918;9.438;2023-04-01T03:56:52;8.90;97.40
3705;DHT22;1868;48.918;9.438;2023-04-01T03:59:22;8.90;97.40
3705;DHT22;1868;48.918;9.438;2023-04-01T04:01:52;8.90;97.40
3705;DHT22;1868;48.918;9.438;2023-04-01T04:04:21;8.80;97.40
3705;DHT22;1868;48.918;9.438;2023-04-01T04:06:50;8.80;97.40
3705;DHT22;1868;48.918;9.438;2023-04-01T04:09:24;8.80;97.40
3705;DHT22;1868;48.918;9.438;2023-04-01T04:11:55;8.80;97.40
3705;DHT22;1868;48.918;9.438;2023-04-01T04:14:24;8.80;97.40
3705;DHT22;1868;48.918;9.438;2023-04-01T04:16:55;8.80;97.40
3705;DHT22;1868;48.918;9.438;2023-04-01T04:19:24;8.80;97.40
3705;DHT22;1868;48.918;9.438;2023-04-01T04:21:53;8.80;97.40
3705;DHT22;1868;48.918;9.438;2023-04-01T04:24:23;8.80;97.40
3705;DHT22;1868;48.918;9.438;2023-04-01T04:27:03;8.70;97.40
3705;DHT22;1868;48.918;9.438;2023-04-01T04:29:32;8.80;97.40
3705;DHT22;1868;48.918;9.438;2023-04-01T04:32:01;8.80;97.40
3705;DHT22;1868;48.918;9.438;2023-04-01T04:34:30;8.80;97.40
3705;DHT22;1868;48.918;9.438;2023-04-01T04:36:58;8.90;97.40
3705;DHT22;1868;48.918;9.438;2023-04-01T04:39:32;8.90;97.40
3705;DHT22;1868;48.918;9.438;2023-04-01T04:42:03;8.90;97.40
3705;DHT22;1868;48.918;9.438;2023-04-01T04:44:32;9.00;97.40
3705;DHT22;1868;48.918;9.438;2023-04-01T04:47:02;9.00;97.40
3705;DHT22;1868;48.918;9.438;2023-04-01T04:49:31;8.90;97.40
3705;DHT22;1868;48.918;9.438;2023-04-01T04:52:04;8.90;97.40
3705;DHT22;1868;48.918;9.438;2023-04-01T04:54:34;8.80;97.40
3705;DHT22;1868;48.918;9.438;2023-04-01T04:57:05;8.80;97.40
3705;DHT22;1868;48.918;9.438;2023-04-01T04:59:41;8.80;97.40
3705;DHT22;1868;48.918;9.438;2023-04-01T05:02:18;8.70;97.40
3705;DHT22;1868;48.918;9.438;2023-04-01T05:04:47;8.70;97.40
3705;DHT22;1868;48.918;9.438;2023-04-01T05:07:16;8.60;97.40
3705;DHT22;1868;48.918;9.438;2023-04-01T05:09:45;8.60;97.40
3705;DHT22;1868;48.918;9.438;2023-04-01T05:12:15;8.60;97.40
3705;DHT22;1868;48.918;9.438;2023-04-01T05:14:57;8.70;97.40
3705;DHT22;1868;48.918;9.438;2023-04-01T05:17:28;8.70;97.40
3705;DHT22;1868;48.918;9.438;2023-04-01T05:19:57;8.60;97.40
3705;DHT22;1868;48.918;9.438;2023-04-01T05:22:26;8.60;97.40
3705;DHT22;1868;48.918;9.438;2023-04-01T05:24:55;8.60;97.40
3705;DHT22;1868;48.918;9.438;2023-04-01T05:27:25;8.60;97.40
3705;DHT22;1868;48.918;9.438;2023-04-01T05:29:54;8.60;97.40
3705;DHT22;1868;48.918;9.438;2023-04-01T05:32:58;8.60;97.40
3705;DHT22;1868;48.918;9.438;2023-04-01T05:35:28;8.70;97.40
3705;DHT22;1868;48.918;9.438;2023-04-01T05:37:57;8.70;97.40
3705;DHT22;1868;48.918;9.438;2023-04-01T05:40:29;8.70;97.40
3705;DHT22;1868;48.918;9.438;2023-04-01T05:42:59;8.70;97.40
3705;DHT22;1868;48.918;9.438;2023-04-01T05:45:28;8.80;97.40
3705;DHT22;1868;48.918;9.438;2023-04-01T05:48:31;8.80;97.40
3705;DHT22;1868;48.918;9.438;2023-04-01T05:51:02;8.80;97.40
3705;DHT22;1868;48.918;9.438;2023-04-01T05:53:37;8.90;97.40
3705;DHT22;1868;48.918;9.438;2023-04-01T05:56:08;9.10;97.40
3705;DHT22;1868;48.918;9.438;2023-04-01T05:58:52;9.00;97.40
3705;DHT22;1868;48.918;9.438;2023-04-01T06:01:23;9.00;97.40
3705;DHT22;1868;48.918;9.438;2023-04-01T06:03:52;9.10;97.40
3705;DHT22;1868;48.918;9.438;2023-04-01T06:06:24;9.10;97.40
3705;DHT22;1868;48.918;9.438;2023-04-01T06:09:06;9.20;97.40
3705;DHT22;1868;48.918;9.438;2023-04-01T06:11:57;9.10;97.40
3705;DHT22;1868;48.918;9.438;2023-04-01T06:14:47;9.20;97.40
3705;DHT22;1868;48.918;9.438;2023-04-01T06:17:26;9.30;97.40
3705;DHT22;1868;48.918;9.438;2023-04-01T06:20:05;9.40;97.40
3705;DHT22;1868;48.918;9.438;2023-04-01T06:22:51;9.50;97.40
3705;DHT22;1868;48.918;9.438;2023-04-01T06:25:53;9.60;97.40
3705;DHT22;1868;48.918;9.438;2023-04-01T06:29:17;9.60;97.40
3705;DHT22;1868;48.918;9.438;2023-04-01T06:35:17;9.70;97.40
3705;DHT22;1868;48.918;9.438;2023-04-01T06:41:24;9.90;97.40
3705;DHT22;1868;48.918;9.438;2023-04-01T06:44:13;9.90;97.40
3705;DHT22;1868;48.918;9.438;2023-04-01T06:47:22;9.90;97.40
3705;DHT22;1868;48.918;9.438;2023-04-01T06:50:24;10.00;97.40
3705;DHT22;1868;48.918;9.438;2023-04-01T06:53:03;9.90;97.40
3705;DHT22;1868;48.918;9.438;2023-04-01T06:55:57;9.90;97.40
3705;DHT22;1868;48.918;9.438;2023-04-01T06:58:57;9.90;97.40
3705;DHT22;1868;48.918;9.438;2023-04-01T07:01:34;9.90;97.40
3705;DHT22;1868;48.918;9.438;2023-04-01T07:04:13;10.00;97.40
3705;DHT22;1868;48.918;9.438;2023-04-01T07:06:47;10.00;97.40
3705;DHT22;1868;48.918;9.438;2023-04-01T07:09:21;10.00;97.40
3705;DHT22;1868;48.918;9.438;2023-04-01T07:12:15;10.00;97.40
3705;DHT22;1868;48.918;9.438;2023-04-01T07:15:21;10.10;97.40
3705;DHT22;1868;48.918;9.438;2023-04-01T07:17:55;10.20;97.40
3705;DHT22;1868;48.918;9.438;2023-04-01T07:20:31;10.20;97.40
3705;DHT22;1868;48.918;9.438;2023-04-01T07:23:08;10.30;97.40
3705;DHT22;1868;48.918;9.438;2023-04-01T07:26:00;10.30;97.40
3705;DHT22;1868;48.918;9.438;2023-04-01T07:28:31;10.30;97.40
3705;DHT22;1868;48.918;9.438;2023-04-01T07:31:23;10.40;97.40
3705;DHT22;1868;48.918;9.438;2023-04-01T07:34:04;10.40;97.40
3705;DHT22;1868;48.918;9.438;2023-04-01T07:36:43;10.30;97.40
3705;DHT22;1868;48.918;9.438;2023-04-01T07:39:24;10.50;97.40
3705;DHT22;1868;48.918;9.438;2023-04-01T07:42:16;10.50;97.40
3705;DHT22;1868;48.918;9.438;2023-04-01T07:45:00;10.40;97.40
3705;DHT22;1868;48.918;9.438;2023-04-01T07:47:44;10.50;97.40
3705;DHT22;1868;48.918;9.438;2023-04-01T07:50:24;10.50;97.40
3705;DHT22;1868;48.918;9.438;2023-04-01T07:53:04;10.50;97.40
3705;DHT22;1868;48.918;9.438;2023-04-01T07:55:40;10.40;97.40
3705;DHT22;1868;48.918;9.438;2023-04-01T07:58:17;10.40;97.40
3705;DHT22;1868;48.918;9.438;2023-04-01T08:00:57;10.50;97.40
3705;DHT22;1868;48.918;9.438;2023-04-01T08:03:49;10.50;97.40
3705;DHT22;1868;48.918;9.438;2023-04-01T08:06:28;10.60;97.40
3705;DHT22;1868;48.918;9.438;2023-04-01T08:09:06;10.60;97.40
3705;DHT22;1868;48.918;9.438;2023-04-01T08:12:07;10.60;97.40
3705;DHT22;1868;48.918;9.438;2023-04-01T08:15:16;10.60;97.40
3705;DHT22;1868;48.918;9.438;2023-04-01T08:18:06;10.60;97.40
3705;DHT22;1868;48.918;9.438;2023-04-01T08:20:45;10.70;97.40
3705;DHT22;1868;48.918;9.438;2023-04-01T08:23:18;10.70;97.40
3705;DHT22;1868;48.918;9.438;2023-04-01T08:25:52;10.70;97.40
3705;DHT22;1868;48.918;9.438;2023-04-01T08:28:32;10.70;97.40
3705;DHT22;1868;48.918;9.438;2023-04-01T08:31:09;10.80;97.40
3705;DHT22;1868;48.918;9.438;2023-04-01T08:33:43;10.80;97.40
3705;DHT22;1868;48.918;9.438;2023-04-01T08:36:15;10.80;97.40
3705;DHT22;1868;48.918;9.438;2023-04-01T08:38:55;10.80;97.40
3705;DHT22;1868;48.918;9.438;2023-04-01T08:51:54;10.90;97.40
3705;DHT22;1868;48.918;9.438;2023-04-01T08:54:48;10.90;97.40
3705;DHT22;1868;48.918;9.438;2023-04-01T08:58:22;10.90;97.40
3705;DHT22;1868;48.918;9.438;2023-04-01T09:01:30;10.80;97.40
3705;DHT22;1868;48.918;9.438;2023-04-01T09:04:25;10.70;97.40
3705;DHT22;1868;48.918;9.438;2023-04-01T09:07:18;10.60;97.40
3705;DHT22;1868;48.918;9.438;2023-04-01T09:10:21;10.60;97.40
3705;DHT22;1868;48.918;9.438;2023-04-01T09:13:27;10.50;97.40
3705;DHT22;1868;48.918;9.438;2023-04-01T09:16:20;10.40;97.40
3705;DHT22;1868;48.918;9.438;2023-04-01T09:19:21;10.30;97.40
3705;DHT22;1868;48.918;9.438;2023-04-01T09:22:14;10.30;97.40
3705;DHT22;1868;48.918;9.438;2023-04-01T09:25:06;10.30;97.40
3705;DHT22;1868;48.918;9.438;2023-04-01T09:27:56;10.30;97.40
3705;DHT22;1868;48.918;9.438;2023-04-01T09:30:41;10.30;97.40
3705;DHT22;1868;48.918;9.438;2023-04-01T09:37:06;10.40;97.40
3705;DHT22;1868;48.918;9.438;2023-04-01T09:40:17;10.40;97.40
3705;DHT22;1868;48.918;9.438;2023-04-01T09:46:11;10.50;97.40
3705;DHT22;1868;48.918;9.438;2023-04-01T09:49:21;10.60;97.40
3705;DHT22;1868;48.918;9.438;2023-04-01T09:52:10;10.60;97.40
3705;DHT22;1868;48.918;9.438;2023-04-01T09:54:58;10.60;97.40
3705;DHT22;1868;48.918;9.438;2023-04-01T09:57:53;10.60;97.40
3705;DHT22;1868;48.918;9.438;2023-04-01T10:08:10;10.70;97.40
3705;DHT22;1868;48.918;9.438;2023-04-01T10:25:05;11.00;97.40
3705;DHT22;1868;48.918;9.438;2023-04-01T10:28:03;11.00;97.40
3705;DHT22;1868;48.918;9.438;2023-04-01T10:31:24;11.00;97.40
3705;DHT22;1868;48.918;9.438;2023-04-01T10:34:34;11.00;97.40
3705;DHT22;1868;48.918;9.438;2023-04-01T10:40:57;10.90;97.40
3705;DHT22;1868;48.918;9.438;2023-04-01T10:44:25;10.90;97.40
3705;DHT22;1868;48.918;9.438;2023-04-01T10:51:15;10.80;97.40
3705;DHT22;1868;48.918;9.438;2023-04-01T10:54:04;10.80;97.40
3705;DHT22;1868;48.918;9.438;2023-04-01T10:56:57;10.70;97.40
3705;DHT22;1868;48.918;9.438;2023-04-01T10:59:57;10.80;97.40
3705;DHT22;1868;48.918;9.438;2023-04-01T11:03:13;10.80;97.40
3705;DHT22;1868;48.918;9.438;2023-04-01T11:06:58;10.80;97.40
3705;DHT22;1868;48.918;9.438;2023-04-01T11:13:57;10.80;97.40
3705;DHT22;1868;48.918;9.438;2023-04-01T11:17:23;10.70;97.40
3705;DHT22;1868;48.918;9.438;2023-04-01T11:20:58;10.70;97.40
3705;DHT22;1868;48.918;9.438;2023-04-01T11:27:18;10.80;97.40
3705;DHT22;1868;48.918;9.438;2023-04-01T11:30:09;10.80;97.40
3705;DHT22;1868;48.918;9.438;2023-04-01T11:32:54;10.80;97.40
3705;DHT22;1868;48.918;9.438;2023-04-01T11:35:44;10.90;97.40
3705;DHT22;1868;48.918;9.438;2023-04-01T11:38:35;10.90;97.40
3705;DHT22;1868;48.918;9.438;2023-04-01T11:41:54;11.00;97.40
3705;DHT22;1868;48.918;9.438;2023-04-01T11:44:53;11.10;97.40
3705;DHT22;1868;48.918;9.438;2023-04-01T11:47:52;11.10;97.40
3705;DHT22;1868;48.918;9.438;2023-04-01T11:50:51;11.10;97.40
3705;DHT22;1868;48.918;9.438;2023-04-01T11:53:41;11.10;97.40
3705;DHT22;1868;48.918;9.438;2023-04-01T11:56:32;11.20;97.40
3705;DHT22;1868;48.918;9.438;2023-04-01T11:59:57;11.20;97.40
3705;DHT22;1868;48.918;9.438;2023-04-01T12:02:47;11.30;97.40
3705;DHT22;1868;48.918;9.438;2023-04-01T12:05:38;11.30;97.40
3705;DHT22;1868;48.918;9.438;2023-04-01T12:08:22;11.20;97.40
3705;DHT22;1868;48.918;9.438;2023-04-01T12:11:02;11.20;97.40
3705;DHT22;1868;48.918;9.438;2023-04-01T12:13:40;11.20;97.40
3705;DHT22;1868;48.918;9.438;2023-04-01T12:16:26;11.30;97.40
3705;DHT22;1868;48.918;9.438;2023-04-01T12:19:11;11.30;97.40
3705;DHT22;1868;48.918;9.438;2023-04-01T12:21:48;11.40;97.40
3705;DHT22;1868;48.918;9.438;2023-04-01T12:24:45;11.30;97.40
3705;DHT22;1868;48.918;9.438;2023-04-01T12:27:35;11.30;97.40
3705;DHT22;1868;48.918;9.438;2023-04-01T12:30:30;11.30;97.40
3705;DHT22;1868;48.918;9.438;2023-04-01T12:36:21;11.20;97.40
3705;DHT22;1868;48.918;9.438;2023-04-01T12:39:28;11.20;97.40
3705;DHT22;1868;48.918;9.438;2023-04-01T12:42:44;11.20;97.40
3705;DHT22;1868;48.918;9.438;2023-04-01T12:45:29;11.30;97.40
3705;DHT22;1868;48.918;9.438;2023-04-01T12:48:27;11.30;97.40
3705;DHT22;1868;48.918;9.438;2023-04-01T12:51:47;11.30;97.40
3705;DHT22;1868;48.918;9.438;2023-04-01T12:57:50;11.30;97.40
3705;DHT22;1868;48.918;9.438;2023-04-01T13:10:31;11.30;97.40
3705;DHT22;1868;48.918;9.438;2023-04-01T13:13:42;11.30;97.40
3705;DHT22;1868;48.918;9.438;2023-04-01T13:16:30;11.30;97.40
3705;DHT22;1868;48.918;9.438;2023-04-01T13:19:07;11.30;97.40
3705;DHT22;1868;48.918;9.438;2023-04-01T13:21:50;11.30;97.40
3705;DHT22;1868;48.918;9.438;2023-04-01T13:24:36;11.30;97.40
3705;DHT22;1868;48.918;9.438;2023-04-01T13:27:17;11.20;97.40
3705;DHT22;1868;48.918;9.438;2023-04-01T13:30:00;11.20;97.40
3705;DHT22;1868;48.918;9.438;2023-04-01T13:32:40;11.10;97.40
3705;DHT22;1868;48.918;9.438;2023-04-01T13:35:23;11.10;97.40
3705;DHT22;1868;48.918;9.438;2023-04-01T13:38:30;11.10;97.40
3705;DHT22;1868;48.918;9.438;2023-04-01T13:41:26;11.00;97.40
3705;DHT22;1868;48.918;9.438;2023-04-01T13:44:09;11.00;97.40
3705;DHT22;1868;48.918;9.438;2023-04-01T13:47:04;10.90;97.40
3705;DHT22;1868;48.918;9.438;2023-04-01T13:50:12;10.90;97.40
3705;DHT22;1868;48.918;9.438;2023-04-01T13:53:18;10.90;97.40
3705;DHT22;1868;48.918;9.438;2023-04-01T13:56:20;10.90;97.40
3705;DHT22;1868;48.918;9.438;2023-04-01T13:59:05;10.80;97.40
3705;DHT22;1868;48.918;9.438;2023-04-01T14:01:49;10.80;97.40
3705;DHT22;1868;48.918;9.438;2023-04-01T14:04:57;10.70;97.40
3705;DHT22;1868;48.918;9.438;2023-04-01T14:07:48;10.70;97.40
3705;DHT22;1868;48.918;9.438;2023-04-01T14:10:25;10.70;97.40
3705;DHT22;1868;48.918;9.438;2023-04-01T14:13:07;10.70;97.40
3705;DHT22;1868;48.918;9.438;2023-04-01T14:15:54;10.70;97.40
3705;DHT22;1868;48.918;9.438;2023-04-01T14:18:52;10.70;97.40
3705;DHT22;1868;48.918;9.438;2023-04-01T14:21:33;10.70;97.40
3705;DHT22;1868;48.918;9.438;2023-04-01T14:24:20;10.80;97.40
3705;DHT22;1868;48.918;9.438;2023-04-01T14:30:32;10.70;97.40
3705;DHT22;1868;48.918;9.438;2023-04-01T14:33:19;10.70;97.40
3705;DHT22;1868;48.918;9.438;2023-04-01T14:36:12;10.60;97.40
3705;DHT22;1868;48.918;9.438;2023-04-01T14:38:59;10.60;97.40
3705;DHT22;1868;48.918;9.438;2023-04-01T14:41:45;10.60;97.40
3705;DHT22;1868;48.918;9.438;2023-04-01T14:44:37;10.50;97.40
3705;DHT22;1868;48.918;9.438;2023-04-01T14:47:43;10.50;97.40
3705;DHT22;1868;48.918;9.438;2023-04-01T14:50:19;10.50;97.40
3705;DHT22;1868;48.918;9.438;2023-04-01T14:52:59;10.40;97.40
3705;DHT22;1868;48.918;9.438;2023-04-01T14:55:48;10.40;97.40
3705;DHT22;1868;48.918;9.438;2023-04-01T14:58:23;10.40;97.40
3705;DHT22;1868;48.918;9.438;2023-04-01T15:01:00;10.40;97.40
3705;DHT22;1868;48.918;9.438;2023-04-01T15:03:48;10.50;97.40
3705;DHT22;1868;48.918;9.438;2023-04-01T15:06:49;10.50;97.40
3705;DHT22;1868;48.918;9.438;2023-04-01T15:09:32;10.50;97.40
3705;DHT22;1868;48.918;9.438;2023-04-01T15:12:19;10.40;97.40
3705;DHT22;1868;48.918;9.438;2023-04-01T15:15:22;10.50;97.40
3705;DHT22;1868;48.918;9.438;2023-04-01T15:18:08;10.40;97.40
3705;DHT22;1868;48.918;9.438;2023-04-01T15:21:18;10.40;97.40
3705;DHT22;1868;48.918;9.438;2023-04-01T15:24:00;10.40;97.40
3705;DHT22;1868;48.918;9.438;2023-04-01T15:27:09;10.40;97.40
3705;DHT22;1868;48.918;9.438;2023-04-01T15:29:59;10.40;97.40
3705;DHT22;1868;48.918;9.438;2023-04-01T15:33:17;10.40;97.40
3705;DHT22;1868;48.918;9.438;2023-04-01T15:36:00;10.40;97.40
3705;DHT22;1868;48.918;9.438;2023-04-01T15:38:39;10.40;97.40
3705;DHT22;1868;48.918;9.438;2023-04-01T15:41:15;10.50;97.40
3705;DHT22;1868;48.918;9.438;2023-04-01T15:43:45;10.50;97.40
3705;DHT22;1868;48.918;9.438;2023-04-01T15:49:20;10.60;97.40
3705;DHT22;1868;48.918;9.438;2023-04-01T15:52:03;10.60;97.40
3705;DHT22;1868;48.918;9.438;2023-04-01T15:55:08;10.60;97.40
3705;DHT22;1868;48.918;9.438;2023-04-01T15:57:54;10.70;97.40
3705;DHT22;1868;48.918;9.438;2023-04-01T16:00:32;10.60;97.40
3705;DHT22;1868;48.918;9.438;2023-04-01T16:03:18;10.70;97.40
3705;DHT22;1868;48.918;9.438;2023-04-01T16:06:10;10.80;97.40
3705;DHT22;1868;48.918;9.438;2023-04-01T16:09:19;10.80;97.40
3705;DHT22;1868;48.918;9.438;2023-04-01T16:12:14;10.80;97.40
3705;DHT22;1868;48.918;9.438;2023-04-01T16:14:55;10.80;97.40
3705;DHT22;1868;48.918;9.438;2023-04-01T16:18:01;10.80;97.40
3705;DHT22;1868;48.918;9.438;2023-04-01T16:20:55;10.80;97.40
3705;DHT22;1868;48.918;9.438;2023-04-01T16:23:36;10.80;97.40
3705;DHT22;1868;48.918;9.438;2023-04-01T16:26:13;10.70;97.40
3705;DHT22;1868;48.918;9.438;2023-04-01T16:28:53;10.70;97.40
3705;DHT22;1868;48.918;9.438;2023-04-01T16:31:31;10.70;97.40
3705;DHT22;1868;48.918;9.438;2023-04-01T16:34:08;10.60;97.40
3705;DHT22;1868;48.918;9.438;2023-04-01T16:36:44;10.70;97.40
3705;DHT22;1868;48.918;9.438;2023-04-01T16:39:30;10.60;97.40
3705;DHT22;1868;48.918;9.438;2023-04-01T16:42:19;10.60;97.40
3705;DHT22;1868;48.918;9.438;2023-04-01T16:45:00;10.70;97.40
3705;DHT22;1868;48.918;9.438;2023-04-01T16:47:38;10.70;97.40
3705;DHT22;1868;48.918;9.438;2023-04-01T16:50:15;10.70;97.40
3705;DHT22;1868;48.918;9.438;2023-04-01T16:52:57;10.80;97.40
3705;DHT22;1868;48.918;9.438;2023-04-01T16:55:35;10.80;97.40
3705;DHT22;1868;48.918;9.438;2023-04-01T16:58:20;10.70;97.40
3705;DHT22;1868;48.918;9.438;2023-04-01T17:01:01;10.70;97.40
3705;DHT22;1868;48.918;9.438;2023-04-01T17:03:39;10.70;97.40
3705;DHT22;1868;48.918;9.438;2023-04-01T17:06:28;10.60;97.40
3705;DHT22;1868;48.918;9.438;2023-04-01T17:09:16;10.60;97.40
3705;DHT22;1868;48.918;9.438;2023-04-01T17:12:04;10.60;97.40
3705;DHT22;1868;48.918;9.438;2023-04-01T17:14:46;10.50;97.40
3705;DHT22;1868;48.918;9.438;2023-04-01T17:17:34;10.50;97.40
3705;DHT22;1868;48.918;9.438;2023-04-01T17:20:25;10.50;97.40
3705;DHT22;1868;48.918;9.438;2023-04-01T17:23:03;10.40;97.40
3705;DHT22;1868;48.918;9.438;2023-04-01T17:26:01;10.30;97.40
3705;DHT22;1868;48.918;9.438;2023-04-01T17:28:44;10.30;97.40
3705;DHT22;1868;48.918;9.438;2023-04-01T17:31:35;10.30;97.40
3705;DHT22;1868;48.918;9.438;2023-04-01T17:34:35;10.20;97.40
3705;DHT22;1868;48.918;9.438;2023-04-01T17:37:24;10.20;97.40
3705;DHT22;1868;48.918;9.438;2023-04-01T17:40:21;10.30;97.40
3705;DHT22;1868;48.918;9.438;2023-04-01T17:43:07;10.20;97.40
3705;DHT22;1868;48.918;9.438;2023-04-01T17:45:45;10.20;97.40
3705;DHT22;1868;48.918;9.438;2023-04-01T17:48:24;10.20;97.40
3705;DHT22;1868;48.918;9.438;2023-04-01T17:51:11;10.20;97.40
3705;DHT22;1868;48.918;9.438;2023-04-01T17:53:52;10.20;97.40
3705;DHT22;1868;48.918;9.438;2023-04-01T17:56:37;10.30;97.40
3705;DHT22;1868;48.918;9.438;2023-04-01T17:59:18;10.20;97.40
3705;DHT22;1868;48.918;9.438;2023-04-01T18:01:57;10.20;97.40
3705;DHT22;1868;48.918;9.438;2023-04-01T18:04:40;10.20;97.40
3705;DHT22;1868;48.918;9.438;2023-04-01T18:10:38;10.20;97.40
3705;DHT22;1868;48.918;9.438;2023-04-01T18:13:45;10.20;97.40
3705;DHT22;1868;48.918;9.438;2023-04-01T18:16:29;10.30;97.40
3705;DHT22;1868;48.918;9.438;2023-04-01T18:19:11;10.30;97.40
3705;DHT22;1868;48.918;9.438;2023-04-01T18:21:47;10.30;97.40
3705;DHT22;1868;48.918;9.438;2023-04-01T18:24:24;10.30;97.40
3705;DHT22;1868;48.918;9.438;2023-04-01T18:27:04;10.30;97.40
3705;DHT22;1868;48.918;9.438;2023-04-01T18:29:44;10.30;97.40
3705;DHT22;1868;48.918;9.438;2023-04-01T18:32:29;10.30;97.40
3705;DHT22;1868;48.918;9.438;2023-04-01T18:35:17;10.30;97.40
3705;DHT22;1868;48.918;9.438;2023-04-01T18:37:54;10.30;97.40
3705;DHT22;1868;48.918;9.438;2023-04-01T18:40:29;10.30;97.40
3705;DHT22;1868;48.918;9.438;2023-04-01T18:43:12;10.20;97.40
3705;DHT22;1868;48.918;9.438;2023-04-01T18:45:50;10.20;97.40
3705;DHT22;1868;48.918;9.438;2023-04-01T18:48:40;10.20;97.40
3705;DHT22;1868;48.918;9.438;2023-04-01T18:51:20;10.20;97.40
3705;DHT22;1868;48.918;9.438;2023-04-01T18:53:57;10.20;97.40
3705;DHT22;1868;48.918;9.438;2023-04-01T18:56:31;10.20;97.40
3705;DHT22;1868;48.918;9.438;2023-04-01T18:59:10;10.20;97.40
3705;DHT22;1868;48.918;9.438;2023-04-01T19:01:47;10.10;97.40
3705;DHT22;1868;48.918;9.438;2023-04-01T19:04:28;10.10;97.40
3705;DHT22;1868;48.918;9.438;2023-04-01T19:07:19;10.10;97.40
3705;DHT22;1868;48.918;9.438;2023-04-01T19:10:00;10.10;97.40
3705;DHT22;1868;48.918;9.438;2023-04-01T19:12:43;10.00;97.40
3705;DHT22;1868;48.918;9.438;2023-04-01T19:15:24;10.00;97.40
3705;DHT22;1868;48.918;9.438;2023-04-01T19:21:07;10.00;97.40
3705;DHT22;1868;48.918;9.438;2023-04-01T19:24:13;9.90;97.40